This is the latest recevied weather packets stored in our database for station/object KC9GSD. If no packets are shown the sender has not sent any weather packets the latest 1 day(s).
| Time | Temp. | Humidity | Pressure | Rain* | Wind** | Luminosity | Snow |
|---|---|---|---|---|---|---|---|
| 1778102378 | 22.78° C | 82% | 1011.1 hPa | 0 mm | - | 33 W/m² | - |
| 1778101468 | 22.78° C | 81% | 1010.9 hPa | 0 mm | - | 50 W/m² | - |
| 1778099044 | 23.89° C | 79% | 1011.4 hPa | 0 mm | - | 184 W/m² | - |
| 1778098740 | 23.89° C | 78% | 1011.4 hPa | 0 mm | - | 123 W/m² | - |
| 1778098438 | 23.89° C | 78% | 1011.8 hPa | 0 mm | - | 102 W/m² | - |
| 1778098134 | 23.89° C | 78% | 1011.8 hPa | 0 mm | - | 138 W/m² | - |
| 1778097830 | 23.89° C | 77% | 1012 hPa | 0 mm | - | 112 W/m² | - |
| 1778097224 | 24.44° C | 77% | 1011.8 hPa | 0 mm | - | 190 W/m² | - |
| 1778096921 | 23.89° C | 77% | 1011.9 hPa | 0 mm | - | 373 W/m² | - |
| 1778096315 | 23.89° C | 78% | 1012.2 hPa | 0 mm | - | 93 W/m² | - |
| 1778095405 | 24.44° C | 76% | 1012.4 hPa | 0 mm | - | 173 W/m² | - |
| 1778095102 | 24.44° C | 75% | 1012.6 hPa | 0 mm | - | 123 W/m² | - |
| 1778092980 | 25° C | 74% | 1012.9 hPa | 0 mm | - | 149 W/m² | - |
| 1778092377 | 25° C | 75% | 1012.8 hPa | 0 mm | - | 209 W/m² | - |
| 1778090256 | 25° C | 74% | 1013 hPa | 0 mm | - | 341 W/m² | - |
| 1778089651 | 23.89° C | 77% | 1013.4 hPa | 0 mm | - | 148 W/m² | - |
| 1778087530 | 22.78° C | 79% | 1013.5 hPa | 0 mm | - | 101 W/m² | - |
| 1778086924 | 22.78° C | 78% | 1013.4 hPa | 0 mm | - | 195 W/m² | - |
| 1778085409 | 22.78° C | 78% | 1013 hPa | 0 mm | - | 152 W/m² | - |
| 1778084801 | 22.78° C | 77% | 1013 hPa | 0 mm | - | 100 W/m² | - |
| 1778083590 | 23.33° C | 78% | 1012.9 hPa | 0 mm | - | 351 W/m² | - |
| 1778082986 | 23.89° C | 72% | 1013 hPa | 0 mm | - | 577 W/m² | - |
| 1778081241 | 21.67° C | 78% | 1013.5 hPa | 0 mm | - | 343 W/m² | - |
| 1778080638 | 21.67° C | 80% | 1013.7 hPa | 0 mm | - | 253 W/m² | - |
| 1778080334 | 21.11° C | 81% | 1013.5 hPa | 0 mm | - | 267 W/m² | - |
* Rain latest hour (hover to see other rain measurements)
** Current wind speed in m/s (hover to see current wind gust speed)